Amity, Maine
Current Conditions -  °F | °C
As of 2:53 AM on Friday 28 Nov 2014 (Local Time) from KHUL Reporting Station
Clear Clear  
Wind Chill: -14°   Ceiling: Unl
Heat Index: -14°   Visibility: 10mi
Dew Point: -16°   Wind: 0mph
Humidity: 87%   Direction: NA
Pressure: 29.99"   Gusts: NA
Location:  45.8952°N, 67.8479°W
Report Text: KHUL 280753Z AUTO 00000KT 10SM CLR M14/M16 A2999 RMK AO2 SLP165 I1000 T11441161
Loading
Personal Weather Stations






























Interactive Weather Map New forecast layout! Learn more

10-Day Weather Forecast

Advertisements
Track Severe Weather on mobile